createdAt,value
2022-09-24T00:01:10.715Z,9.60
2022-09-24T00:03:42.438Z,8.38
2022-09-24T00:08:36.640Z,8.00
2022-09-24T00:11:05.458Z,7.78
2022-09-24T00:13:33.528Z,7.30
2022-09-24T00:16:03.325Z,7.22
2022-09-24T00:18:30.740Z,6.78
2022-09-24T00:20:58.698Z,7.73
2022-09-24T00:23:25.534Z,7.60
2022-09-24T00:25:52.452Z,8.27
2022-09-24T00:28:19.006Z,7.18
2022-09-24T00:30:45.576Z,7.38
2022-09-24T00:33:12.166Z,7.78
2022-09-24T00:35:39.250Z,6.75
2022-09-24T00:38:07.649Z,7.05
2022-09-24T00:40:36.867Z,7.23
2022-09-24T00:43:21.875Z,7.15
2022-09-24T00:45:49.430Z,6.88
2022-09-24T00:48:16.311Z,6.60
2022-09-24T00:50:42.880Z,6.70
2022-09-24T00:53:13.800Z,6.38
2022-09-24T00:55:42.442Z,7.07
2022-09-24T00:58:09.414Z,6.95
2022-09-24T01:00:39.063Z,6.38
2022-09-24T01:03:08.916Z,6.20
2022-09-24T01:05:36.261Z,6.85
2022-09-24T01:08:02.943Z,6.10
2022-09-24T01:10:42.279Z,6.63
2022-09-24T01:13:28.733Z,6.57
2022-09-24T01:16:02.151Z,6.47
2022-09-24T01:18:36.711Z,6.85
2022-09-24T01:21:16.068Z,6.22
2022-09-24T01:23:59.593Z,6.40
2022-09-24T01:26:52.415Z,6.28
2022-09-24T01:29:37.876Z,5.85
2022-09-24T01:32:09.121Z,6.00
2022-09-24T01:34:42.016Z,6.18
2022-09-24T01:37:09.019Z,5.40
2022-09-24T01:39:38.091Z,5.43
2022-09-24T01:42:06.824Z,6.00
2022-09-24T01:44:36.505Z,5.73
2022-09-24T01:47:04.920Z,6.18
2022-09-24T01:49:31.552Z,6.30
2022-09-24T01:52:03.075Z,5.88
2022-09-24T01:54:35.607Z,5.47
2022-09-24T01:57:07.497Z,5.93
2022-09-24T01:59:40.331Z,6.32
2022-09-24T02:02:12.278Z,6.32
2022-09-24T02:04:44.073Z,6.82
2022-09-24T02:07:13.639Z,6.15
2022-09-24T02:09:42.295Z,6.40
2022-09-24T02:12:11.788Z,6.72
2022-09-24T02:14:45.048Z,6.40
2022-09-24T02:17:13.683Z,7.22
2022-09-24T02:19:41.807Z,6.65
2022-09-24T02:22:12.073Z,6.82
2022-09-24T02:24:45.812Z,7.25
2022-09-24T02:27:12.684Z,6.72
2022-09-24T02:29:40.856Z,7.55
2022-09-24T02:32:10.602Z,7.03
2022-09-24T02:34:41.357Z,6.70
2022-09-24T02:37:10.388Z,6.78
2022-09-24T02:39:37.206Z,6.93
2022-09-24T02:42:05.032Z,6.57
2022-09-24T02:44:32.394Z,5.95
2022-09-24T02:47:00.366Z,7.07
2022-09-24T02:49:27.109Z,7.00
2022-09-24T02:51:53.703Z,6.60
2022-09-24T02:54:20.330Z,6.25
2022-09-24T02:56:46.887Z,6.50
2022-09-24T02:59:13.536Z,7.07
2022-09-24T03:01:40.214Z,7.30
2022-09-24T03:04:08.696Z,6.93
2022-09-24T03:06:35.421Z,6.75
2022-09-24T03:09:01.996Z,6.50
2022-09-24T03:11:28.728Z,7.18
2022-09-24T03:13:55.312Z,6.88
2022-09-24T03:16:21.922Z,7.10
2022-09-24T03:18:48.848Z,6.80
2022-09-24T03:21:18.600Z,6.78
2022-09-24T03:23:45.449Z,6.68
2022-09-24T03:26:12.700Z,6.97
2022-09-24T03:28:39.569Z,7.50
2022-09-24T03:31:07.086Z,6.40
2022-09-24T03:33:35.679Z,6.70
2022-09-24T03:36:05.445Z,6.55
2022-09-24T03:38:34.141Z,6.40
2022-09-24T03:41:01.382Z,6.15
2022-09-24T03:43:28.408Z,5.93
2022-09-24T03:45:55.049Z,5.93
2022-09-24T03:48:22.935Z,5.97
2022-09-24T03:50:50.316Z,5.68
2022-09-24T03:53:18.222Z,5.72
2022-09-24T03:55:47.827Z,5.90
2022-09-24T04:00:42.009Z,5.30
2022-09-24T04:03:09.517Z,5.53
2022-09-24T04:05:36.443Z,5.60
2022-09-24T04:08:03.591Z,5.60
2022-09-24T04:10:30.586Z,5.22
2022-09-24T04:12:58.601Z,5.30
2022-09-24T04:15:25.145Z,5.07
2022-09-24T04:17:52.181Z,5.18
2022-09-24T04:20:19.270Z,5.40
2022-09-24T04:22:45.839Z,5.18
2022-09-24T04:25:14.855Z,5.18
2022-09-24T04:27:41.783Z,5.05
2022-09-24T04:30:12.204Z,4.93
2022-09-24T04:32:38.858Z,4.80
2022-09-24T04:35:07.726Z,4.90
2022-09-24T04:37:34.498Z,4.88
2022-09-24T04:40:01.413Z,5.28
2022-09-24T04:42:27.981Z,4.70
2022-09-24T04:44:56.210Z,5.05
2022-09-24T04:47:24.413Z,4.43
2022-09-24T04:49:51.037Z,4.78
2022-09-24T04:52:17.838Z,4.88
2022-09-24T04:54:44.837Z,5.28
2022-09-24T04:57:11.402Z,4.93
2022-09-24T04:59:37.976Z,5.22
2022-09-24T05:02:09.344Z,5.45
2022-09-24T05:04:38.009Z,5.00
2022-09-24T05:07:05.048Z,5.43
2022-09-24T05:09:31.789Z,4.60
2022-09-24T05:11:58.457Z,5.90
2022-09-24T05:14:25.532Z,5.30
2022-09-24T05:16:52.377Z,5.20
2022-09-24T05:19:19.606Z,6.15
2022-09-24T05:21:47.881Z,5.53
2022-09-24T05:24:14.701Z,5.05
2022-09-24T05:26:41.336Z,5.47
2022-09-24T05:29:08.018Z,5.13
2022-09-24T05:31:34.756Z,5.60
2022-09-24T05:34:01.423Z,6.10
2022-09-24T05:36:28.001Z,5.82
2022-09-24T05:38:55.954Z,5.78
2022-09-24T05:41:23.366Z,5.53
2022-09-24T05:43:49.950Z,5.85
2022-09-24T05:46:16.802Z,6.03
2022-09-24T05:48:43.418Z,6.00
2022-09-24T05:51:09.997Z,5.97
2022-09-24T05:53:36.595Z,6.75
2022-09-24T05:56:04.712Z,6.22
2022-09-24T05:58:31.289Z,6.47
2022-09-24T06:00:59.164Z,6.15
2022-09-24T06:03:25.861Z,6.13
2022-09-24T06:05:52.510Z,5.78
2022-09-24T06:08:20.485Z,5.85
2022-09-24T06:10:48.037Z,5.13
2022-09-24T06:13:17.573Z,4.68
2022-09-24T06:18:11.350Z,4.43
2022-09-24T06:20:38.194Z,4.10
2022-09-24T06:23:04.751Z,3.50
2022-09-24T06:25:31.432Z,3.55
2022-09-24T06:27:59.766Z,3.40
2022-09-24T06:30:29.573Z,4.18
2022-09-24T06:33:01.932Z,4.07
2022-09-24T06:35:28.483Z,4.07
2022-09-24T06:37:55.025Z,3.78
2022-09-24T06:40:21.639Z,3.83
2022-09-24T06:42:51.115Z,3.47
2022-09-24T06:45:17.653Z,3.65
2022-09-24T06:47:52.261Z,3.45
2022-09-24T06:50:18.906Z,3.58
2022-09-24T06:52:45.696Z,3.45
2022-09-24T06:55:12.328Z,3.92
2022-09-24T06:57:38.887Z,3.90
2022-09-24T07:00:06.654Z,4.00
2022-09-24T07:02:33.300Z,4.20
2022-09-24T07:05:01.277Z,4.80
2022-09-24T07:07:27.820Z,3.88
2022-09-24T07:09:54.518Z,4.30
2022-09-24T07:12:21.071Z,4.82
2022-09-24T07:14:47.616Z,4.38
2022-09-24T07:17:14.311Z,4.28
2022-09-24T07:19:41.037Z,4.53
2022-09-24T07:22:09.149Z,4.38
2022-09-24T07:24:35.744Z,4.00
2022-09-24T07:27:04.025Z,4.03
2022-09-24T07:29:30.577Z,3.95
2022-09-24T07:31:57.152Z,4.20
2022-09-24T07:34:23.747Z,3.53
2022-09-24T07:36:50.480Z,3.90
2022-09-24T07:39:18.411Z,3.97
2022-09-24T07:41:44.995Z,3.88
2022-09-24T07:44:11.628Z,3.28
2022-09-24T07:46:38.301Z,3.20
2022-09-24T07:49:04.936Z,3.67
2022-09-24T07:51:31.497Z,3.80
2022-09-24T07:53:58.347Z,2.97
2022-09-24T07:56:26.274Z,2.97
2022-09-24T07:58:53.551Z,2.92
2022-09-24T08:01:20.602Z,2.90
2022-09-24T08:03:47.342Z,2.60
2022-09-24T08:06:13.976Z,2.30
2022-09-24T08:08:40.567Z,2.67
2022-09-24T08:11:08.406Z,2.40
2022-09-24T08:13:36.622Z,3.13
2022-09-24T08:16:04.513Z,2.90
2022-09-24T08:18:32.173Z,2.97
2022-09-24T08:20:58.937Z,2.75
2022-09-24T08:23:25.630Z,2.03
2022-09-24T08:25:54.192Z,1.90
2022-09-24T08:28:20.821Z,2.40
2022-09-24T08:30:48.801Z,2.30
2022-09-24T08:33:15.443Z,2.50
2022-09-24T08:35:41.996Z,2.22
2022-09-24T08:38:09.339Z,2.60
2022-09-24T08:40:39.082Z,2.58
2022-09-24T08:43:13.151Z,2.40
2022-09-24T08:45:44.190Z,2.25
2022-09-24T08:48:15.850Z,2.55
2022-09-24T08:50:50.276Z,1.98
2022-09-24T08:53:22.802Z,2.28
2022-09-24T08:55:52.818Z,1.80
2022-09-24T08:58:31.564Z,1.50
2022-09-24T09:01:07.486Z,1.80
2022-09-24T09:03:43.264Z,1.70
2022-09-24T09:06:20.346Z,1.63
2022-09-24T09:09:11.571Z,1.42
2022-09-24T09:11:39.737Z,1.50
2022-09-24T09:14:12.564Z,1.65
2022-09-24T09:16:47.283Z,1.30
2022-09-24T09:19:16.898Z,1.50
2022-09-24T09:21:48.332Z,1.30
2022-09-24T09:24:17.929Z,1.45
2022-09-24T09:26:49.224Z,1.73
2022-09-24T09:29:16.807Z,1.60
2022-09-24T09:31:55.443Z,1.40
2022-09-24T09:34:40.560Z,1.85
2022-09-24T09:37:14.389Z,1.42
2022-09-24T09:39:49.241Z,1.25
2022-09-24T09:42:29.840Z,2.00
2022-09-24T09:44:56.427Z,1.80
2022-09-24T09:47:29.723Z,1.50
2022-09-24T09:50:03.974Z,1.40
2022-09-24T09:52:37.388Z,1.63
2022-09-24T09:55:05.392Z,2.80
2022-09-24T09:57:35.249Z,2.40
2022-09-24T10:00:02.712Z,1.60
2022-09-24T10:02:32.842Z,1.65
2022-09-24T10:05:02.527Z,1.88
2022-09-24T10:07:29.329Z,2.40
2022-09-24T10:10:01.952Z,2.00
2022-09-24T10:12:28.902Z,1.58
2022-09-24T10:14:58.419Z,1.38
2022-09-24T10:17:29.590Z,1.50
2022-09-24T10:19:56.403Z,1.48
2022-09-24T10:22:26.948Z,1.50
2022-09-24T10:24:55.685Z,1.70
2022-09-24T10:27:31.633Z,1.52
2022-09-24T10:29:59.006Z,1.60
2022-09-24T10:32:28.295Z,1.63
2022-09-24T10:34:55.672Z,1.67
2022-09-24T10:37:24.047Z,1.48
2022-09-24T10:39:57.806Z,1.42
2022-09-24T10:42:26.169Z,10.85
2022-09-24T10:44:54.078Z,4.95
2022-09-24T10:47:27.004Z,2.40
2022-09-24T10:50:07.203Z,1.77
2022-09-24T10:52:44.258Z,1.65
2022-09-24T10:55:22.224Z,1.50
2022-09-24T10:57:58.761Z,1.65
2022-09-24T11:00:32.260Z,1.92
2022-09-24T11:03:49.834Z,1.40
2022-09-24T11:06:31.120Z,1.60
2022-09-24T11:09:12.177Z,2.28
2022-09-24T11:11:50.303Z,1.50
2022-09-24T11:14:33.407Z,1.17
2022-09-24T11:17:17.157Z,1.35
2022-09-24T11:19:57.980Z,1.00
2022-09-24T11:22:36.497Z,1.45
2022-09-24T11:25:25.964Z,1.67
2022-09-24T11:28:02.864Z,1.30
2022-09-24T11:30:35.896Z,1.00
2022-09-24T11:33:23.308Z,1.95
2022-09-24T11:36:04.158Z,1.90
2022-09-24T11:38:43.217Z,1.30
2022-09-24T11:41:23.339Z,1.08
2022-09-24T11:44:10.258Z,1.23
2022-09-24T11:46:49.870Z,1.10
2022-09-24T11:49:32.344Z,1.20
2022-09-24T11:52:04.868Z,1.33
2022-09-24T11:54:37.427Z,1.20
2022-09-24T11:57:13.048Z,1.23
2022-09-24T11:59:48.309Z,1.20
2022-09-24T12:02:20.566Z,1.42
2022-09-24T12:04:56.683Z,1.20
2022-09-24T12:07:32.059Z,1.30
2022-09-24T12:10:02.579Z,1.40
2022-09-24T12:12:34.851Z,1.45
2022-09-24T12:15:05.847Z,1.10
2022-09-24T12:17:38.011Z,1.55
2022-09-24T12:20:14.486Z,1.30
2022-09-24T12:22:43.149Z,1.30
2022-09-24T12:25:12.152Z,1.60
2022-09-24T12:27:40.092Z,1.50
2022-09-24T12:30:26.660Z,1.27
2022-09-24T12:33:01.258Z,1.30
2022-09-24T12:35:38.833Z,1.10
2022-09-24T12:38:10.314Z,1.17
2022-09-24T12:41:02.576Z,1.33
2022-09-24T12:43:37.761Z,1.10
2022-09-24T12:46:07.483Z,1.35
2022-09-24T12:48:37.239Z,1.40
2022-09-24T12:51:06.795Z,1.38
2022-09-24T12:53:35.819Z,1.20
2022-09-24T12:56:04.429Z,1.50
2022-09-24T12:58:37.968Z,1.60
2022-09-24T13:01:07.908Z,1.75
2022-09-24T13:03:36.882Z,1.40
2022-09-24T13:06:18.656Z,1.40
2022-09-24T13:08:45.268Z,1.80
2022-09-24T13:11:27.443Z,1.80
2022-09-24T13:14:02.283Z,2.30
2022-09-24T13:16:29.446Z,1.80
2022-09-24T13:18:58.940Z,1.30
2022-09-24T13:21:28.668Z,1.48
2022-09-24T13:23:56.508Z,1.55
2022-09-24T13:26:29.717Z,1.45
2022-09-24T13:28:58.182Z,1.50
2022-09-24T13:31:38.836Z,1.80
2022-09-24T13:34:16.037Z,1.60
2022-09-24T13:36:47.866Z,1.40
2022-09-24T13:39:20.246Z,1.50
2022-09-24T13:41:56.708Z,1.55
2022-09-24T13:44:30.154Z,1.55
2022-09-24T13:47:01.627Z,1.30
2022-09-24T13:49:30.335Z,1.40
2022-09-24T13:52:07.816Z,1.40
2022-09-24T13:54:38.347Z,1.35
2022-09-24T13:57:11.800Z,1.73
2022-09-24T13:59:38.403Z,1.58
2022-09-24T14:02:23.852Z,1.48
2022-09-24T14:04:54.079Z,1.90
2022-09-24T14:07:21.438Z,2.33
2022-09-24T14:09:48.090Z,1.98
2022-09-24T14:12:16.980Z,1.80
2022-09-24T14:14:44.989Z,1.80
2022-09-24T14:17:14.844Z,1.70
2022-09-24T14:19:43.117Z,1.70
2022-09-24T14:22:14.746Z,1.80
2022-09-24T14:24:45.112Z,1.73
2022-09-24T14:27:14.908Z,1.70
2022-09-24T14:29:48.323Z,1.75
2022-09-24T14:32:22.879Z,1.75
2022-09-24T14:34:54.585Z,1.80
2022-09-24T14:37:25.115Z,1.92
2022-09-24T14:39:59.099Z,2.53
2022-09-24T14:42:30.322Z,4.18
2022-09-24T14:44:57.391Z,3.80
2022-09-24T14:47:26.873Z,3.22
2022-09-24T14:49:55.609Z,3.75
2022-09-24T14:52:27.850Z,3.38
2022-09-24T14:55:02.893Z,3.38
2022-09-24T14:57:36.328Z,3.92
2022-09-24T15:00:18.479Z,3.72
2022-09-24T15:02:50.562Z,3.10
2022-09-24T15:05:24.272Z,3.38
2022-09-24T15:07:57.744Z,3.25
2022-09-24T15:17:58.262Z,2.60
2022-09-24T15:20:33.433Z,2.90
2022-09-24T15:23:02.435Z,2.83
2022-09-24T15:25:36.586Z,3.22
2022-09-24T15:28:05.882Z,3.17
2022-09-24T15:33:18.245Z,3.58
2022-09-24T15:35:55.507Z,3.58
2022-09-24T15:38:50.414Z,4.30
2022-09-24T15:41:28.335Z,4.57
2022-09-24T15:46:45.831Z,5.53
2022-09-24T15:52:16.294Z,6.45
2022-09-24T15:55:04.210Z,6.47
2022-09-24T15:57:37.142Z,6.20
2022-09-24T16:02:56.990Z,6.05
2022-09-24T16:05:30.067Z,6.18
2022-09-24T16:08:07.947Z,6.28
2022-09-24T16:10:42.488Z,6.25
2022-09-24T16:13:25.213Z,6.78
2022-09-24T16:19:01.622Z,7.13
2022-09-24T16:21:34.187Z,9.13
2022-09-24T16:24:21.773Z,6.57
2022-09-24T16:26:48.359Z,6.97
2022-09-24T16:31:41.505Z,5.68
2022-09-24T16:34:08.643Z,5.75
2022-09-24T16:36:38.094Z,5.88
2022-09-24T16:39:05.859Z,7.32
2022-09-24T16:41:41.842Z,9.43
2022-09-24T16:47:47.008Z,7.63
2022-09-24T16:50:13.766Z,8.02
2022-09-24T16:52:40.327Z,7.75
2022-09-24T16:55:08.315Z,6.80
2022-09-24T16:57:37.867Z,6.55
2022-09-24T17:00:05.476Z,7.30
2022-09-24T17:02:32.126Z,6.75
2022-09-24T17:05:01.523Z,5.40
2022-09-24T17:07:29.737Z,6.13
2022-09-24T17:09:56.288Z,6.70
2022-09-24T17:12:22.907Z,6.25
2022-09-24T17:14:50.869Z,6.57
2022-09-24T17:17:17.528Z,7.15
2022-09-24T17:19:44.244Z,8.93
2022-09-24T17:22:10.828Z,8.90
2022-09-24T17:24:37.505Z,9.38
2022-09-24T17:27:04.282Z,10.07
2022-09-24T17:29:31.813Z,9.15
2022-09-24T17:32:00.229Z,8.75
2022-09-24T17:34:27.133Z,6.07
2022-09-24T17:36:53.749Z,5.03
2022-09-24T17:39:20.371Z,4.40
2022-09-24T17:41:46.976Z,4.35
2022-09-24T17:44:13.670Z,4.05
2022-09-24T17:47:02.968Z,4.85
2022-09-24T17:51:57.500Z,4.13
2022-09-24T17:54:24.263Z,4.45
2022-09-24T17:56:50.869Z,3.88
2022-09-24T17:59:17.447Z,3.28
2022-09-24T18:01:45.111Z,3.92
2022-09-24T18:04:13.382Z,3.20
2022-09-24T18:06:43.590Z,3.80
2022-09-24T18:09:11.979Z,3.90
2022-09-24T18:11:41.140Z,3.95
2022-09-24T18:14:11.985Z,4.25
2022-09-24T18:16:38.567Z,5.03
2022-09-24T18:19:05.254Z,4.80
2022-09-24T18:21:32.344Z,5.18
2022-09-24T18:24:00.898Z,5.07
2022-09-24T18:26:29.523Z,5.30
2022-09-24T18:28:57.919Z,5.30
2022-09-24T18:31:26.364Z,5.35
2022-09-24T18:33:54.195Z,5.53
2022-09-24T18:36:24.959Z,5.43
2022-09-24T18:38:52.119Z,4.57
2022-09-24T18:41:22.602Z,4.72
2022-09-24T18:43:50.168Z,4.55
2022-09-24T18:46:18.818Z,4.43
2022-09-24T18:48:47.800Z,4.75
2022-09-24T18:51:16.861Z,3.85
2022-09-24T18:53:43.635Z,3.88
2022-09-24T18:56:10.701Z,4.10
2022-09-24T18:58:38.655Z,3.85
2022-09-24T19:01:05.853Z,4.03
2022-09-24T19:03:32.492Z,3.65
2022-09-24T19:06:02.638Z,3.50
2022-09-24T19:08:29.304Z,3.75
2022-09-24T19:11:00.406Z,3.40
2022-09-24T19:13:27.010Z,3.17
2022-09-24T19:15:55.016Z,3.20
2022-09-24T19:18:21.587Z,3.67
2022-09-24T19:20:48.201Z,3.10
2022-09-24T19:23:15.629Z,3.10
2022-09-24T19:25:42.413Z,3.58
2022-09-24T19:28:10.996Z,3.60
2022-09-24T19:30:38.867Z,3.47
2022-09-24T19:33:07.313Z,3.13
2022-09-24T19:35:34.217Z,3.47
2022-09-24T19:38:01.250Z,3.20
2022-09-24T19:40:27.840Z,3.65
2022-09-24T19:42:54.487Z,2.70
2022-09-24T19:45:21.735Z,3.08
2022-09-24T19:47:48.542Z,3.25
2022-09-24T19:50:17.723Z,2.95
2022-09-24T19:55:11.079Z,2.95
2022-09-24T19:57:37.624Z,2.80
2022-09-24T20:00:04.962Z,3.08
2022-09-24T20:02:31.572Z,2.90
2022-09-24T20:04:58.158Z,3.72
2022-09-24T20:07:26.111Z,3.03
2022-09-24T20:09:52.877Z,2.90
2022-09-24T20:12:19.524Z,3.00
2022-09-24T20:14:46.138Z,3.42
2022-09-24T20:17:12.723Z,3.88
2022-09-24T20:19:39.311Z,3.30
2022-09-24T20:22:08.549Z,3.60
2022-09-24T20:24:36.779Z,3.95
2022-09-24T20:27:03.619Z,4.07
2022-09-24T20:29:30.146Z,4.00
2022-09-24T20:31:56.702Z,4.05
2022-09-24T20:34:25.191Z,4.10
2022-09-24T20:36:51.898Z,4.00
2022-09-24T20:39:18.829Z,3.78
2022-09-24T20:41:47.775Z,3.80
2022-09-24T20:44:14.388Z,3.80
2022-09-24T20:46:41.027Z,4.05
2022-09-24T20:49:08.179Z,4.50
2022-09-24T20:51:34.828Z,4.38
2022-09-24T20:54:01.768Z,4.00
2022-09-24T20:56:28.879Z,3.88
2022-09-24T20:58:57.273Z,3.45
2022-09-24T21:01:25.142Z,3.47
2022-09-24T21:03:52.327Z,3.75
2022-09-24T21:06:19.716Z,4.00
2022-09-24T21:08:46.910Z,3.40
2022-09-24T21:11:15.503Z,3.85
2022-09-24T21:13:48.679Z,2.83
2022-09-24T21:16:17.401Z,2.88
2022-09-24T21:18:44.120Z,2.38
2022-09-24T21:21:12.979Z,2.60
2022-09-24T21:23:39.607Z,2.50
2022-09-24T21:26:11.586Z,2.30
2022-09-24T21:28:38.548Z,2.50
2022-09-24T21:31:06.450Z,2.85
2022-09-24T21:33:35.362Z,3.00
2022-09-24T21:36:03.516Z,2.80
2022-09-24T21:38:30.357Z,2.67
2022-09-24T21:40:57.867Z,2.83
2022-09-24T21:43:28.608Z,2.83
2022-09-24T21:46:02.528Z,2.73
2022-09-24T21:48:29.822Z,2.58
2022-09-24T22:03:16.122Z,2.60
2022-09-24T22:05:42.733Z,2.42
2022-09-24T22:08:10.934Z,2.78
2022-09-24T22:10:38.040Z,2.50
2022-09-24T22:13:04.822Z,2.72
2022-09-24T22:15:31.859Z,2.60
2022-09-24T22:17:58.441Z,2.30
2022-09-24T22:20:25.059Z,2.78
2022-09-24T22:22:51.645Z,2.40
2022-09-24T22:25:19.590Z,2.30
2022-09-24T22:27:46.248Z,2.67
2022-09-24T22:30:13.485Z,2.33
2022-09-24T22:32:40.026Z,2.20
2022-09-24T22:35:07.125Z,1.70
2022-09-24T22:37:33.691Z,2.00
2022-09-24T22:40:00.484Z,1.90
2022-09-24T22:42:28.414Z,1.80
2022-09-24T22:44:54.976Z,1.92
2022-09-24T22:47:21.525Z,2.10
2022-09-24T22:49:48.130Z,2.05
2022-09-24T22:52:14.684Z,1.90
2022-09-24T22:54:41.219Z,1.88
2022-09-24T22:57:07.849Z,1.85
2022-09-24T22:59:35.832Z,1.60
